createdAt,value
2016-01-27T00:00:23.639Z,17.72
2016-01-27T00:01:23.703Z,17.67
2016-01-27T00:02:23.769Z,17.7
2016-01-27T00:03:23.820Z,17.64
2016-01-27T00:04:23.868Z,17.65
2016-01-27T00:05:23.933Z,17.7
2016-01-27T00:06:23.968Z,17.59
2016-01-27T00:07:24.036Z,17.6
2016-01-27T00:08:24.116Z,17.63
2016-01-27T00:09:24.149Z,17.74
2016-01-27T00:10:24.215Z,17.71
2016-01-27T00:11:24.264Z,17.63
2016-01-27T00:12:24.331Z,17.67
2016-01-27T00:13:24.240Z,17.7
2016-01-27T00:14:24.414Z,17.65
2016-01-27T00:15:24.479Z,17.65
2016-01-27T00:16:24.547Z,17.6
2016-01-27T00:17:24.613Z,17.64
2016-01-27T00:18:24.647Z,17.63
2016-01-27T00:19:24.712Z,17.64
2016-01-27T00:20:24.762Z,17.63
2016-01-27T00:21:24.811Z,17.64
2016-01-27T00:22:24.893Z,17.65
2016-01-27T00:23:24.929Z,17.6
2016-01-27T00:24:24.995Z,17.57
2016-01-27T00:25:25.045Z,17.6
2016-01-27T00:26:25.093Z,17.63
2016-01-27T00:27:25.175Z,17.59
2016-01-27T00:28:25.225Z,17.65
2016-01-27T00:29:24.509Z,17.64
2016-01-27T00:30:25.324Z,17.64
2016-01-27T00:31:25.390Z,17.59
2016-01-27T00:32:25.440Z,17.57
2016-01-27T00:33:25.474Z,17.59
2016-01-27T00:34:25.539Z,17.63
2016-01-27T00:35:25.589Z,17.65
2016-01-27T00:36:25.655Z,17.68
2016-01-27T00:37:25.736Z,17.57
2016-01-27T00:38:25.769Z,17.63
2016-01-27T00:39:25.820Z,17.63
2016-01-27T00:40:25.884Z,17.6
2016-01-27T00:41:25.935Z,17.64
2016-01-27T00:42:26.000Z,17.65
2016-01-27T00:43:26.050Z,17.7
2016-01-27T00:44:26.100Z,17.57
2016-01-27T00:45:26.149Z,17.65
2016-01-27T00:46:26.231Z,17.63
2016-01-27T00:47:26.280Z,17.6
2016-01-27T00:48:26.315Z,17.67
2016-01-27T00:49:26.395Z,17.57
2016-01-27T00:50:26.428Z,17.63
2016-01-27T00:51:26.509Z,17.68
2016-01-27T00:52:26.558Z,17.67
2016-01-27T00:53:26.595Z,17.74
2016-01-27T00:54:26.661Z,17.6
2016-01-27T00:55:26.711Z,17.63
2016-01-27T00:56:26.775Z,17.64
2016-01-27T00:57:26.841Z,17.6
2016-01-27T00:58:26.891Z,17.65
2016-01-27T00:59:26.927Z,17.65
2016-01-27T01:00:26.992Z,17.76
2016-01-27T01:01:27.073Z,17.71
2016-01-27T01:02:27.109Z,17.64
2016-01-27T01:03:27.159Z,17.63
2016-01-27T01:04:27.208Z,17.59
2016-01-27T01:05:27.275Z,17.63
2016-01-27T01:06:27.356Z,17.64
2016-01-27T01:07:27.374Z,17.64
2016-01-27T01:08:27.424Z,17.63
2016-01-27T01:09:27.504Z,17.6
2016-01-27T01:10:27.555Z,17.65
2016-01-27T01:11:27.604Z,17.65
2016-01-27T01:12:27.685Z,17.59
2016-01-27T01:13:27.704Z,17.71
2016-01-27T01:14:27.801Z,17.64
2016-01-27T01:15:27.836Z,17.64
2016-01-27T01:16:27.886Z,17.65
2016-01-27T01:17:27.951Z,17.6
2016-01-27T01:18:27.984Z,17.7
2016-01-27T01:19:28.040Z,17.57
2016-01-27T01:20:28.154Z,17.63
2016-01-27T01:21:27.407Z,17.56
2016-01-27T01:22:28.208Z,17.63
2016-01-27T01:23:28.288Z,17.56
2016-01-27T01:24:28.358Z,17.57
2016-01-27T01:25:28.391Z,17.64
2016-01-27T01:26:28.456Z,17.57
2016-01-27T01:27:28.475Z,17.56
2016-01-27T01:28:28.588Z,17.6
2016-01-27T01:29:28.622Z,17.6
2016-01-27T01:30:28.655Z,17.57
2016-01-27T01:31:28.736Z,17.65
2016-01-27T01:32:28.786Z,17.6
2016-01-27T01:33:28.836Z,17.63
2016-01-27T01:34:28.901Z,17.6
2016-01-27T01:35:28.968Z,17.6
2016-01-27T01:36:29.002Z,17.65
2016-01-27T01:37:29.071Z,17.65
2016-01-27T01:38:29.168Z,17.78
2016-01-27T01:39:29.186Z,17.63
2016-01-27T01:40:29.238Z,17.64
2016-01-27T01:41:29.288Z,17.59
2016-01-27T01:42:29.353Z,17.67
2016-01-27T01:43:29.403Z,17.76
2016-01-27T01:44:29.438Z,17.64
2016-01-27T01:45:29.519Z,17.54
2016-01-27T01:46:29.570Z,17.57
2016-01-27T01:47:29.603Z,17.6
2016-01-27T01:48:29.685Z,17.57
2016-01-27T01:49:29.720Z,17.6
2016-01-27T01:50:29.784Z,17.6
2016-01-27T01:51:29.832Z,17.63
2016-01-27T01:52:29.898Z,17.63
2016-01-27T01:53:29.965Z,17.64
2016-01-27T01:54:30.014Z,17.67
2016-01-27T01:55:30.048Z,17.65
2016-01-27T01:56:30.114Z,17.65
2016-01-27T01:57:30.194Z,17.59
2016-01-27T01:58:30.246Z,17.59
2016-01-27T01:59:30.279Z,17.7
2016-01-27T02:00:30.360Z,17.72
2016-01-27T02:01:30.394Z,17.7
2016-01-27T02:02:30.445Z,17.79
2016-01-27T02:03:30.542Z,17.71
2016-01-27T02:04:30.573Z,17.71
2016-01-27T02:05:30.614Z,17.72
2016-01-27T02:06:30.656Z,17.71
2016-01-27T02:07:30.699Z,17.68
2016-01-27T02:08:30.755Z,17.68
2016-01-27T02:09:30.799Z,17.74
2016-01-27T02:10:30.845Z,17.74
2016-01-27T02:11:30.925Z,17.71
2016-01-27T02:12:30.971Z,17.74
2016-01-27T02:13:31.002Z,17.72
2016-01-27T02:14:31.065Z,17.68
2016-01-27T02:15:31.131Z,17.72
2016-01-27T02:16:31.163Z,17.72
2016-01-27T02:17:31.227Z,17.65
2016-01-27T02:18:31.293Z,17.74
2016-01-27T02:19:31.326Z,17.76
2016-01-27T02:20:31.391Z,17.78
2016-01-27T02:21:31.476Z,17.74
2016-01-27T02:22:31.496Z,17.83
2016-01-27T02:23:31.560Z,17.67
2016-01-27T02:24:31.626Z,17.8
2016-01-27T02:25:31.676Z,17.82
2016-01-27T02:26:31.710Z,17.76
2016-01-27T02:27:31.792Z,17.74
2016-01-27T02:28:31.842Z,17.59
2016-01-27T02:29:31.875Z,17.72
2016-01-27T02:30:31.972Z,17.68
2016-01-27T02:31:32.006Z,17.79
2016-01-27T02:32:32.087Z,17.79
2016-01-27T02:33:32.121Z,17.74
2016-01-27T02:34:32.202Z,17.65
2016-01-27T02:35:32.298Z,17.72
2016-01-27T02:36:32.302Z,17.68
2016-01-27T02:37:32.352Z,17.74
2016-01-27T02:38:32.401Z,17.67
2016-01-27T02:39:32.481Z,17.64
2016-01-27T02:40:32.502Z,17.68
2016-01-27T02:41:32.583Z,17.76
2016-01-27T02:42:32.647Z,17.74
2016-01-27T02:43:32.665Z,17.78
2016-01-27T02:44:32.747Z,17.6
2016-01-27T02:45:32.798Z,17.6
2016-01-27T02:46:32.848Z,17.74
2016-01-27T02:47:32.913Z,17.63
2016-01-27T02:48:32.947Z,17.54
2016-01-27T02:49:32.997Z,17.6
2016-01-27T02:50:33.069Z,17.63
2016-01-27T02:51:33.120Z,17.65
2016-01-27T02:52:33.171Z,17.63
2016-01-27T02:53:33.237Z,17.72
2016-01-27T02:54:33.271Z,17.72
2016-01-27T02:55:33.337Z,17.72
2016-01-27T02:56:33.419Z,17.71
2016-01-27T02:57:33.452Z,17.79
2016-01-27T02:58:33.518Z,17.79
2016-01-27T02:59:33.552Z,17.74
2016-01-27T03:00:33.633Z,17.76
2016-01-27T03:01:33.683Z,17.83
2016-01-27T03:02:33.721Z,17.78
2016-01-27T03:03:33.615Z,17.82
2016-01-27T03:04:33.711Z,17.79
2016-01-27T03:05:33.918Z,17.79
2016-01-27T03:06:33.968Z,17.74
2016-01-27T03:07:34.017Z,17.78
2016-01-27T03:08:34.083Z,17.79
2016-01-27T03:09:34.135Z,17.74
2016-01-27T03:10:34.170Z,17.85
2016-01-27T03:11:34.219Z,17.83
2016-01-27T03:12:34.314Z,17.8
2016-01-27T03:13:34.334Z,17.82
2016-01-27T03:14:34.400Z,17.79
2016-01-27T03:15:34.482Z,17.8
2016-01-27T03:16:34.531Z,17.78
2016-01-27T03:17:34.554Z,17.78
2016-01-27T03:18:34.638Z,17.76
2016-01-27T03:19:34.690Z,17.82
2016-01-27T03:20:34.734Z,17.82
2016-01-27T03:21:34.798Z,17.83
2016-01-27T03:22:34.833Z,17.8
2016-01-27T03:23:34.932Z,17.87
2016-01-27T03:24:34.966Z,17.82
2016-01-27T03:25:35.016Z,17.8
2016-01-27T03:26:35.065Z,17.76
2016-01-27T03:27:35.147Z,17.76
2016-01-27T03:28:35.181Z,17.78
2016-01-27T03:29:35.246Z,17.78
2016-01-27T03:30:35.296Z,17.78
2016-01-27T03:31:35.348Z,17.83
2016-01-27T03:32:35.398Z,17.78
2016-01-27T03:33:35.322Z,17.7
2016-01-27T03:34:35.527Z,17.72
2016-01-27T03:35:35.545Z,17.79
2016-01-27T03:36:35.627Z,17.78
2016-01-27T03:37:35.677Z,17.71
2016-01-27T03:38:35.742Z,17.79
2016-01-27T03:39:35.793Z,17.82
2016-01-27T03:40:35.843Z,17.7
2016-01-27T03:41:35.878Z,17.59
2016-01-27T03:42:35.959Z,17.78
2016-01-27T03:43:36.023Z,17.74
2016-01-27T03:44:36.058Z,17.74
2016-01-27T03:45:36.123Z,17.7
2016-01-27T03:46:36.173Z,17.76
2016-01-27T03:47:36.223Z,17.7
2016-01-27T03:48:36.303Z,17.72
2016-01-27T03:49:36.324Z,17.74
2016-01-27T03:50:36.405Z,17.65
2016-01-27T03:51:36.469Z,17.78
2016-01-27T03:52:36.509Z,17.78
2016-01-27T03:53:36.575Z,17.76
2016-01-27T03:54:36.671Z,17.7
2016-01-27T03:55:36.673Z,17.67
2016-01-27T03:56:36.725Z,17.65
2016-01-27T03:57:36.822Z,17.71
2016-01-27T03:58:36.826Z,17.67
2016-01-27T03:59:36.891Z,17.7
2016-01-27T04:00:36.955Z,17.67
2016-01-27T04:01:37.023Z,17.71
2016-01-27T04:02:37.071Z,17.74
2016-01-27T04:03:37.121Z,17.76
2016-01-27T04:04:37.171Z,17.67
2016-01-27T04:05:37.221Z,17.7
2016-01-27T04:06:37.318Z,17.57
2016-01-27T04:07:37.351Z,17.67
2016-01-27T04:08:37.401Z,17.7
2016-01-27T04:09:37.467Z,17.54
2016-01-27T04:10:37.517Z,17.72
2016-01-27T04:11:37.585Z,17.64
2016-01-27T04:12:37.619Z,17.64
2016-01-27T04:13:37.669Z,17.72
2016-01-27T04:14:37.735Z,17.74
2016-01-27T04:15:37.802Z,17.67
2016-01-27T04:16:37.851Z,17.6
2016-01-27T04:17:37.900Z,17.6
2016-01-27T04:18:37.967Z,17.67
2016-01-27T04:19:38.001Z,17.74
2016-01-27T04:20:38.098Z,17.71
2016-01-27T04:21:38.133Z,17.78
2016-01-27T04:22:38.167Z,17.67
2016-01-27T04:23:38.227Z,17.7
2016-01-27T04:24:38.293Z,17.71
2016-01-27T04:25:38.343Z,17.76
2016-01-27T04:26:38.424Z,17.74
2016-01-27T04:27:38.459Z,17.74
2016-01-27T04:28:38.508Z,17.76
2016-01-27T04:29:38.574Z,17.7
2016-01-27T04:30:38.623Z,17.64
2016-01-27T04:31:38.688Z,17.76
2016-01-27T04:32:38.740Z,17.72
2016-01-27T04:33:38.790Z,17.71
2016-01-27T04:34:38.824Z,17.71
2016-01-27T04:35:38.920Z,17.72
2016-01-27T04:36:38.969Z,17.64
2016-01-27T04:37:39.003Z,17.72
2016-01-27T04:38:39.084Z,17.7
2016-01-27T04:39:39.119Z,17.68
2016-01-27T04:40:39.187Z,17.7
2016-01-27T04:41:39.253Z,17.67
2016-01-27T04:42:39.287Z,17.65
2016-01-27T04:43:39.368Z,17.65
2016-01-27T04:44:39.403Z,17.64
2016-01-27T04:45:39.468Z,17.65
2016-01-27T04:46:39.533Z,17.71
2016-01-27T04:47:39.582Z,17.54
2016-01-27T04:48:39.615Z,17.63
2016-01-27T04:49:39.682Z,17.64
2016-01-27T04:50:39.762Z,17.59
2016-01-27T04:51:39.798Z,17.65
2016-01-27T04:52:39.864Z,17.63
2016-01-27T04:53:39.929Z,17.6
2016-01-27T04:54:39.978Z,17.64
2016-01-27T04:55:40.027Z,17.59
2016-01-27T04:56:40.080Z,17.63
2016-01-27T04:57:40.144Z,17.6
2016-01-27T04:58:40.210Z,17.57
2016-01-27T04:59:40.243Z,17.57
2016-01-27T05:00:40.297Z,17.59
2016-01-27T05:01:40.361Z,17.56
2016-01-27T05:02:40.410Z,17.65
2016-01-27T05:03:40.493Z,17.65
2016-01-27T05:04:40.527Z,17.64
2016-01-27T05:05:40.577Z,17.65
2016-01-27T05:06:40.627Z,17.67
2016-01-27T05:07:40.679Z,17.54
2016-01-27T05:08:40.760Z,17.6
2016-01-27T05:09:40.809Z,17.59
2016-01-27T05:10:40.843Z,17.57
2016-01-27T05:11:40.911Z,17.65
2016-01-27T05:12:40.991Z,17.65
2016-01-27T05:13:41.041Z,17.63
2016-01-27T05:14:41.076Z,17.63
2016-01-27T05:15:41.158Z,17.56
2016-01-27T05:16:41.191Z,17.65
2016-01-27T05:17:41.272Z,17.59
2016-01-27T05:18:41.292Z,17.65
2016-01-27T05:19:41.220Z,17.67
2016-01-27T05:20:41.443Z,17.65
2016-01-27T05:21:41.492Z,17.68
2016-01-27T05:22:41.532Z,17.64
2016-01-27T05:23:41.580Z,17.63
2016-01-27T05:24:41.645Z,17.68
2016-01-27T05:25:41.681Z,17.65
2016-01-27T05:26:41.761Z,17.64
2016-01-27T05:27:41.811Z,17.63
2016-01-27T05:28:41.844Z,17.67
2016-01-27T05:29:41.916Z,17.57
2016-01-27T05:30:41.980Z,17.64
2016-01-27T05:31:42.045Z,17.63
2016-01-27T05:32:42.097Z,17.65
2016-01-27T05:33:42.130Z,17.68
2016-01-27T05:34:42.195Z,17.68
2016-01-27T05:35:42.276Z,17.67
2016-01-27T05:36:42.315Z,17.63
2016-01-27T05:37:42.380Z,17.65
2016-01-27T05:38:42.445Z,17.67
2016-01-27T05:39:42.479Z,17.64
2016-01-27T05:40:42.547Z,17.63
2016-01-27T05:41:42.613Z,17.63
2016-01-27T05:42:42.630Z,17.68
2016-01-27T05:43:42.683Z,17.54
2016-01-27T05:44:42.749Z,17.65
2016-01-27T05:45:42.829Z,17.65
2016-01-27T05:46:42.863Z,17.65
2016-01-27T05:47:42.931Z,17.63
2016-01-27T05:48:42.979Z,17.7
2016-01-27T05:49:43.038Z,17.59
2016-01-27T05:50:43.243Z,17.65
2016-01-27T05:51:43.153Z,17.64
2016-01-27T05:52:43.187Z,17.63
2016-01-27T05:53:43.268Z,17.65
2016-01-27T05:54:43.333Z,17.65
2016-01-27T05:55:43.367Z,17.63
2016-01-27T05:56:43.416Z,17.59
2016-01-27T05:57:43.450Z,17.64
2016-01-27T05:58:43.532Z,17.63
2016-01-27T05:59:43.612Z,17.63
2016-01-27T06:00:43.630Z,17.64
2016-01-27T06:01:43.695Z,17.63
2016-01-27T06:02:43.761Z,17.68
2016-01-27T06:03:43.812Z,17.63
2016-01-27T06:04:43.861Z,17.59
2016-01-27T06:05:43.930Z,17.65
2016-01-27T06:06:43.980Z,17.67
2016-01-27T06:07:44.029Z,17.63
2016-01-27T06:08:44.094Z,17.65
2016-01-27T06:09:44.159Z,17.67
2016-01-27T06:10:44.194Z,17.56
2016-01-27T06:11:44.260Z,17.64
2016-01-27T06:12:44.310Z,17.6
2016-01-27T06:13:44.391Z,17.56
2016-01-27T06:14:44.410Z,17.56
2016-01-27T06:15:44.491Z,17.68
2016-01-27T06:16:44.541Z,17.63
2016-01-27T06:17:44.575Z,17.64
2016-01-27T06:18:44.642Z,17.68
2016-01-27T06:19:44.706Z,17.67
2016-01-27T06:20:44.772Z,17.63
2016-01-27T06:21:44.822Z,17.6
2016-01-27T06:22:44.890Z,17.67
2016-01-27T06:23:44.923Z,17.63
2016-01-27T06:24:44.989Z,17.63
2016-01-27T06:25:45.055Z,17.63
2016-01-27T06:26:45.073Z,17.64
2016-01-27T06:27:45.155Z,17.6
2016-01-27T06:28:45.219Z,17.67
2016-01-27T06:29:45.240Z,17.68
2016-01-27T06:30:45.320Z,17.65
2016-01-27T06:31:45.371Z,17.57
2016-01-27T06:32:45.435Z,17.54
2016-01-27T06:33:45.486Z,17.51
2016-01-27T06:34:45.520Z,17.59
2016-01-27T06:35:45.601Z,17.59
2016-01-27T06:36:45.652Z,17.49
2016-01-27T06:37:45.701Z,17.56
2016-01-27T06:38:45.767Z,17.57
2016-01-27T06:39:45.817Z,17.59
2016-01-27T06:40:45.867Z,17.64
2016-01-27T06:41:45.932Z,17.6
2016-01-27T06:42:45.997Z,17.49
2016-01-27T06:43:46.021Z,17.52
2016-01-27T06:44:46.086Z,17.6
2016-01-27T06:45:46.150Z,17.64
2016-01-27T06:46:46.200Z,17.59
2016-01-27T06:47:46.269Z,17.52
2016-01-27T06:48:46.304Z,17.65
2016-01-27T06:49:46.384Z,17.6
2016-01-27T06:50:46.449Z,17.6
2016-01-27T06:51:46.483Z,17.6
2016-01-27T06:52:46.550Z,17.6
2016-01-27T06:53:46.616Z,17.57
2016-01-27T06:54:46.665Z,17.6
2016-01-27T06:55:46.700Z,17.46
2016-01-27T06:56:46.764Z,17.49
2016-01-27T06:57:46.813Z,17.57
2016-01-27T06:58:46.880Z,17.6
2016-01-27T06:59:46.945Z,17.6
2016-01-27T07:00:46.979Z,17.64
2016-01-27T07:01:47.045Z,17.51
2016-01-27T07:02:47.111Z,17.57
2016-01-27T07:03:47.145Z,17.6
2016-01-27T07:04:47.226Z,17.6
2016-01-27T07:05:47.261Z,17.54
2016-01-27T07:06:47.310Z,17.52
2016-01-27T07:07:47.391Z,17.49
2016-01-27T07:08:47.455Z,17.56
2016-01-27T07:09:47.477Z,17.64
2016-01-27T07:10:47.541Z,17.6
2016-01-27T07:11:47.621Z,17.46
2016-01-27T07:12:47.657Z,17.59
2016-01-27T07:13:47.725Z,17.46
2016-01-27T07:14:47.759Z,17.65
2016-01-27T07:15:47.825Z,17.44
2016-01-27T07:16:47.874Z,17.63
2016-01-27T07:17:47.941Z,17.6
2016-01-27T07:18:47.990Z,17.46
2016-01-27T07:19:48.040Z,17.59
2016-01-27T07:20:48.090Z,17.6
2016-01-27T07:21:48.170Z,17.48
2016-01-27T07:22:48.206Z,17.48
2016-01-27T07:23:48.256Z,17.48
2016-01-27T07:24:48.307Z,17.63
2016-01-27T07:25:48.387Z,17.64
2016-01-27T07:26:48.452Z,17.48
2016-01-27T07:27:48.487Z,17.63
2016-01-27T07:28:48.551Z,17.56
2016-01-27T07:29:48.585Z,17.48
2016-01-27T07:30:48.666Z,17.44
2016-01-27T07:31:48.716Z,17.64
2016-01-27T07:32:48.765Z,17.59
2016-01-27T07:33:48.816Z,17.49
2016-01-27T07:34:48.882Z,17.63
2016-01-27T07:35:48.962Z,17.6
2016-01-27T07:36:48.965Z,17.65
2016-01-27T07:37:49.032Z,17.65
2016-01-27T07:38:49.114Z,17.64
2016-01-27T07:39:49.179Z,17.45
2016-01-27T07:40:49.215Z,17.45
2016-01-27T07:41:49.265Z,17.34
2016-01-27T07:42:49.330Z,17.33
2016-01-27T07:43:49.396Z,17.38
2016-01-27T07:44:49.416Z,17.33
2016-01-27T07:45:49.498Z,17.27
2016-01-27T07:46:49.563Z,17.27
2016-01-27T07:47:49.612Z,17.24
2016-01-27T07:48:49.648Z,17.15
2016-01-27T07:49:49.729Z,17.19
2016-01-27T07:50:49.748Z,17.08
2016-01-27T07:51:49.813Z,17.02
2016-01-27T07:52:49.878Z,17.01
2016-01-27T07:53:50.024Z,16.94
2016-01-27T07:54:49.995Z,16.97
2016-01-27T07:55:50.048Z,16.99
2016-01-27T07:56:50.113Z,17.08
2016-01-27T07:57:50.163Z,16.94
2016-01-27T07:58:50.197Z,16.97
2016-01-27T07:59:50.247Z,17.08
2016-01-27T08:00:50.343Z,17.11
2016-01-27T08:01:50.362Z,17.11
2016-01-27T08:02:50.431Z,17.12
2016-01-27T08:03:50.496Z,17.22
2016-01-27T08:04:50.530Z,17.23
2016-01-27T08:05:50.611Z,17.2
2016-01-27T08:06:50.646Z,17.23
2016-01-27T08:07:50.695Z,17.19
2016-01-27T08:08:50.761Z,17.19
2016-01-27T08:09:50.810Z,17.22
2016-01-27T08:10:50.877Z,17.16
2016-01-27T08:11:50.943Z,17.16
2016-01-27T08:12:50.977Z,17.14
2016-01-27T08:13:51.030Z,17.2
2016-01-27T08:14:51.111Z,17.15
2016-01-27T08:15:51.160Z,17.19
2016-01-27T08:16:51.194Z,17.16
2016-01-27T08:17:51.259Z,17.15
2016-01-27T08:18:51.325Z,17.27
2016-01-27T08:19:51.375Z,17.27
2016-01-27T08:20:51.425Z,17.29
2016-01-27T08:21:51.477Z,17.26
2016-01-27T08:22:51.528Z,17.24
2016-01-27T08:23:51.578Z,17.26
2016-01-27T08:24:51.643Z,17.26
2016-01-27T08:25:51.692Z,17.31
2016-01-27T08:26:51.757Z,17.29
2016-01-27T08:27:51.808Z,17.3
2016-01-27T08:28:51.857Z,17.34
2016-01-27T08:29:51.921Z,17.38
2016-01-27T08:30:51.974Z,17.34
2016-01-27T08:31:52.055Z,17.38
2016-01-27T08:32:52.077Z,17.36
2016-01-27T08:33:52.141Z,17.33
2016-01-27T08:34:52.222Z,17.45
2016-01-27T08:35:52.257Z,17.42
2016-01-27T08:36:52.321Z,17.42
2016-01-27T08:37:52.372Z,17.45
2016-01-27T08:38:52.406Z,17.45
2016-01-27T08:39:52.460Z,17.39
2016-01-27T08:40:52.524Z,17.39
2016-01-27T08:41:52.605Z,17.42
2016-01-27T08:42:52.640Z,17.45
2016-01-27T08:43:52.690Z,17.42
2016-01-27T08:44:52.739Z,17.34
2016-01-27T08:45:52.820Z,17.31
2016-01-27T08:46:52.854Z,17.48
2016-01-27T08:47:52.919Z,17.41
2016-01-27T08:48:52.974Z,17.36
2016-01-27T08:49:53.024Z,17.36
2016-01-27T08:50:53.058Z,17.42
2016-01-27T08:51:53.155Z,17.49
2016-01-27T08:52:53.189Z,17.42
2016-01-27T08:53:53.239Z,17.39
2016-01-27T08:54:53.289Z,17.45
2016-01-27T08:55:53.339Z,17.44
2016-01-27T08:56:53.423Z,17.42
2016-01-27T08:57:53.457Z,17.34
2016-01-27T08:58:53.507Z,17.45
2016-01-27T08:59:53.588Z,17.45
2016-01-27T09:00:53.622Z,17.42
2016-01-27T09:01:53.703Z,17.42
2016-01-27T09:02:53.737Z,17.46
2016-01-27T09:03:53.821Z,17.41
2016-01-27T09:04:53.838Z,17.41
2016-01-27T09:05:53.904Z,17.49
2016-01-27T09:06:53.969Z,17.45
2016-01-27T09:07:54.005Z,17.38
2016-01-27T09:08:54.069Z,17.46
2016-01-27T09:09:54.166Z,17.39
2016-01-27T09:10:54.172Z,17.42
2016-01-27T09:11:54.222Z,17.41
2016-01-27T09:12:54.319Z,17.42
2016-01-27T09:13:54.337Z,17.38
2016-01-27T09:14:54.404Z,17.46
2016-01-27T09:15:54.468Z,17.42
2016-01-27T09:16:54.518Z,17.33
2016-01-27T09:17:54.567Z,17.44
2016-01-27T09:18:54.745Z,17.39
2016-01-27T09:19:54.706Z,17.44
2016-01-27T09:20:54.740Z,17.44
2016-01-27T09:21:54.806Z,17.44
2016-01-27T09:22:54.880Z,17.36
2016-01-27T09:23:54.931Z,17.42
2016-01-27T09:24:54.995Z,17.42
2016-01-27T09:25:55.001Z,17.44
2016-01-27T09:26:55.098Z,17.52
2016-01-27T09:27:55.115Z,17.45
2016-01-27T09:28:55.150Z,17.41
2016-01-27T09:29:55.247Z,17.45
2016-01-27T09:30:55.313Z,17.44
2016-01-27T09:31:55.346Z,17.42
2016-01-27T09:32:55.383Z,17.42
2016-01-27T09:33:55.480Z,17.45
2016-01-27T09:34:55.576Z,17.42
2016-01-27T09:35:55.626Z,17.46
2016-01-27T09:36:55.629Z,17.41
2016-01-27T09:37:55.726Z,17.36
2016-01-27T09:38:55.791Z,17.36
2016-01-27T09:39:55.825Z,17.38
2016-01-27T09:40:55.921Z,17.36
2016-01-27T09:41:55.924Z,17.39
2016-01-27T09:42:55.960Z,17.41
2016-01-27T09:43:56.027Z,17.38
2016-01-27T09:44:56.078Z,17.41
2016-01-27T09:45:56.096Z,17.36
2016-01-27T09:46:56.177Z,17.38
2016-01-27T09:47:56.230Z,17.36
2016-01-27T09:48:56.342Z,17.38
2016-01-27T09:49:56.408Z,17.38
2016-01-27T09:50:56.395Z,17.33
2016-01-27T09:51:56.428Z,17.34
2016-01-27T09:52:56.494Z,17.34
2016-01-27T09:53:56.558Z,17.39
2016-01-27T09:54:56.589Z,17.3
2016-01-27T09:55:56.670Z,17.38
2016-01-27T09:56:56.735Z,17.29
2016-01-27T09:57:56.769Z,17.24
2016-01-27T09:58:56.850Z,17.27
2016-01-27T09:59:56.867Z,17.26
2016-01-27T10:00:56.967Z,17.34
2016-01-27T10:01:57.000Z,17.29
2016-01-27T10:02:57.034Z,17.27
2016-01-27T10:03:57.130Z,17.24
2016-01-27T10:04:57.181Z,17.29
2016-01-27T10:05:57.215Z,17.24
2016-01-27T10:06:57.296Z,17.29
2016-01-27T10:07:57.319Z,17.24
2016-01-27T10:08:57.368Z,17.23
2016-01-27T10:09:57.450Z,17.24
2016-01-27T10:10:57.483Z,17.24
2016-01-27T10:11:57.534Z,17.26
2016-01-27T10:12:57.600Z,17.24
2016-01-27T10:13:57.649Z,17.26
2016-01-27T10:14:57.730Z,17.27
2016-01-27T10:15:57.780Z,17.22
2016-01-27T10:16:57.815Z,17.24
2016-01-27T10:17:57.864Z,17.22
2016-01-27T10:18:57.992Z,17.23
2016-01-27T10:19:57.979Z,17.23
2016-01-27T10:20:58.045Z,17.27
2016-01-27T10:21:58.094Z,17.31
2016-01-27T10:22:58.129Z,17.22
2016-01-27T10:23:58.194Z,17.26
2016-01-27T10:24:58.260Z,17.22
2016-01-27T10:25:58.296Z,17.23
2016-01-27T10:26:58.379Z,17.24
2016-01-27T10:27:58.397Z,17.24
2016-01-27T10:28:58.463Z,17.27
2016-01-27T10:29:58.545Z,17.29
2016-01-27T10:30:58.564Z,17.24
2016-01-27T10:31:58.660Z,17.23
2016-01-27T10:32:58.695Z,17.3
2016-01-27T10:33:58.746Z,17.26
2016-01-27T10:34:58.811Z,17.16
2016-01-27T10:35:58.877Z,17.23
2016-01-27T10:36:58.926Z,17.15
2016-01-27T10:37:58.964Z,17.09
2016-01-27T10:38:59.028Z,17.16
2016-01-27T10:39:59.062Z,17.15
2016-01-27T10:40:58.393Z,17.19
2016-01-27T10:41:59.178Z,17.12
2016-01-27T10:42:59.243Z,17.19
2016-01-27T10:43:59.309Z,17.15
2016-01-27T10:44:59.360Z,17.14
2016-01-27T10:45:59.409Z,17.2
2016-01-27T10:46:59.460Z,17.15
2016-01-27T10:47:59.525Z,17.19
2016-01-27T10:48:59.591Z,17.14
2016-01-27T10:49:59.624Z,17.14
2016-01-27T10:50:59.673Z,17.2
2016-01-27T10:51:59.787Z,17.16
2016-01-27T10:52:59.789Z,17.19
2016-01-27T10:53:59.840Z,17.15
2016-01-27T10:54:59.904Z,17.2
2016-01-27T10:55:59.971Z,17.19
2016-01-27T10:57:00.017Z,17.2
2016-01-27T10:58:00.066Z,17.19
2016-01-27T10:59:00.116Z,17.15
2016-01-27T11:00:00.183Z,17.16
2016-01-27T11:01:00.233Z,17.19
2016-01-27T11:02:00.281Z,17.15
2016-01-27T11:03:00.378Z,17.15
2016-01-27T11:04:00.398Z,17.11
2016-01-27T11:05:00.478Z,17.16
2016-01-27T11:06:00.512Z,17.12
2016-01-27T11:07:00.625Z,17.23
2016-01-27T11:08:00.673Z,17.24
2016-01-27T11:09:00.677Z,17.23
2016-01-27T11:10:00.712Z,17.16
2016-01-27T11:11:00.802Z,17.2
2016-01-27T11:12:00.826Z,17.2
2016-01-27T11:13:00.864Z,17.2
2016-01-27T11:14:00.794Z,17.16
2016-01-27T11:15:00.974Z,17.15
2016-01-27T11:16:00.987Z,17.16
2016-01-27T11:17:01.090Z,17.2
2016-01-27T11:18:01.151Z,17.19
2016-01-27T11:19:01.166Z,17.11
2016-01-27T11:20:01.227Z,17.19
2016-01-27T11:21:01.275Z,17.16
2016-01-27T11:22:01.339Z,17.19
2016-01-27T11:23:01.386Z,17.19
2016-01-27T11:24:01.437Z,17.14
2016-01-27T11:25:01.454Z,17.19
2016-01-27T11:26:01.544Z,17.23
2016-01-27T11:27:01.593Z,17.22
2016-01-27T11:28:01.644Z,17.31
2016-01-27T11:29:01.692Z,17.14
2016-01-27T11:30:01.773Z,17.16
2016-01-27T11:31:01.838Z,17.15
2016-01-27T11:32:01.872Z,17.2
2016-01-27T11:33:01.937Z,17.12
2016-01-27T11:34:01.954Z,17.15
2016-01-27T11:35:02.007Z,17.3
2016-01-27T11:36:02.088Z,17.29
2016-01-27T11:37:02.168Z,17.23
2016-01-27T11:38:02.170Z,17.23
2016-01-27T11:39:02.239Z,17.29
2016-01-27T11:40:02.319Z,17.23
2016-01-27T11:41:02.354Z,17.16
2016-01-27T11:42:02.403Z,17.31
2016-01-27T11:43:02.487Z,17.22
2016-01-27T11:44:02.584Z,17.29
2016-01-27T11:45:02.586Z,17.23
2016-01-27T11:46:02.622Z,17.22
2016-01-27T11:47:02.688Z,17.22
2016-01-27T11:48:02.736Z,17.24
2016-01-27T11:49:02.786Z,17.27
2016-01-27T11:50:02.853Z,17.19
2016-01-27T11:51:02.918Z,17.23
2016-01-27T11:52:02.937Z,17.24
2016-01-27T11:53:03.017Z,17.29
2016-01-27T11:54:03.068Z,17.27
2016-01-27T11:55:03.133Z,17.3
2016-01-27T11:56:03.193Z,17.26
2016-01-27T11:57:03.227Z,17.29
2016-01-27T11:58:03.324Z,17.29
2016-01-27T11:59:03.311Z,17.23
2016-01-27T12:00:03.376Z,17.24
2016-01-27T12:01:03.488Z,17.26
2016-01-27T12:02:03.506Z,17.24
2016-01-27T12:03:03.556Z,17.31
2016-01-27T12:04:03.637Z,17.3
2016-01-27T12:05:03.670Z,17.26
2016-01-27T12:06:03.720Z,17.3
2016-01-27T12:07:03.801Z,17.24
2016-01-27T12:08:03.820Z,17.3
2016-01-27T12:09:03.885Z,17.24
2016-01-27T12:10:03.966Z,17.22
2016-01-27T12:11:04.016Z,17.3
2016-01-27T12:12:04.066Z,17.27
2016-01-27T12:13:04.115Z,17.29
2016-01-27T12:14:04.166Z,17.29
2016-01-27T12:15:04.231Z,17.26
2016-01-27T12:16:04.297Z,17.26
2016-01-27T12:17:04.330Z,17.24
2016-01-27T12:18:04.442Z,17.3
2016-01-27T12:19:04.461Z,17.31
2016-01-27T12:20:04.468Z,17.3
2016-01-27T12:21:04.548Z,17.27
2016-01-27T12:22:04.598Z,17.34
2016-01-27T12:23:04.684Z,17.31
2016-01-27T12:24:04.749Z,17.36
2016-01-27T12:25:04.798Z,17.34
2016-01-27T12:26:04.816Z,17.31
2016-01-27T12:27:04.872Z,17.33
2016-01-27T12:28:04.922Z,17.33
2016-01-27T12:29:04.986Z,17.38
2016-01-27T12:30:05.066Z,17.33
2016-01-27T12:31:05.085Z,17.31
2016-01-27T12:32:05.150Z,17.26
2016-01-27T12:33:05.204Z,17.27
2016-01-27T12:34:05.255Z,17.27
2016-01-27T12:35:05.321Z,17.27
2016-01-27T12:36:05.371Z,17.31
2016-01-27T12:37:05.468Z,17.27
2016-01-27T12:38:05.470Z,17.3
2016-01-27T12:39:05.536Z,17.31
2016-01-27T12:40:05.590Z,17.24
2016-01-27T12:41:05.655Z,17.24
2016-01-27T12:42:05.705Z,17.26
2016-01-27T12:43:05.801Z,17.26
2016-01-27T12:44:05.805Z,17.24
2016-01-27T12:45:05.871Z,17.27
2016-01-27T12:46:05.921Z,17.22
2016-01-27T12:47:05.832Z,17.26
2016-01-27T12:48:06.068Z,17.31
2016-01-27T12:49:06.086Z,17.27
2016-01-27T12:50:06.152Z,17.3
2016-01-27T12:51:06.202Z,17.27
2016-01-27T12:52:06.252Z,17.31
2016-01-27T12:53:06.301Z,17.26
2016-01-27T12:54:06.367Z,17.31
2016-01-27T12:55:06.438Z,17.33
2016-01-27T12:56:06.471Z,17.33